Time,TemperatureF,DewpointF,PressureIn,WindDirection,WindDirectionDegrees,WindSpeedMPH,WindSpeedGustMPH,Humidity,HourlyPrecipIn,Conditions,Clouds,dailyrainin,SoftwareType,DateUTC
2013-08-14 00:12:00,64.0,64.0,29.78,NNE,17,0.0,11.0,99,0.00,,,0.17,,2013-08-14 04:12:00,
2013-08-14 00:23:00,64.0,64.0,29.78,NNE,17,0.0,11.0,99,0.00,,,0.17,,2013-08-14 04:23:00,
2013-08-14 00:52:00,64.0,64.0,29.78,NNE,17,0.0,0.0,99,0.00,,,0.17,,2013-08-14 04:52:00,
2013-08-14 01:12:00,64.0,64.0,29.77,NNE,17,0.0,11.0,99,0.00,,,0.17,,2013-08-14 05:12:00,
2013-08-14 01:22:00,64.0,64.0,29.77,NNE,17,0.0,11.0,99,0.00,,,0.17,,2013-08-14 05:22:00,
2013-08-14 01:52:00,64.0,64.0,29.77,NNE,17,0.0,11.0,99,0.00,,,0.17,,2013-08-14 05:52:00,
2013-08-14 02:11:00,64.0,64.0,29.77,NNE,17,0.0,11.0,99,0.00,,,0.17,,2013-08-14 06:11:00,
2013-08-14 02:21:00,64.0,64.0,29.77,NNE,17,0.0,11.0,99,0.00,,,0.17,,2013-08-14 06:21:00,
2013-08-14 02:32:00,64.0,64.0,29.77,NNE,17,0.0,11.0,99,0.00,,,0.17,,2013-08-14 06:32:00,
2013-08-14 03:11:00,64.0,64.0,29.76,NNE,17,0.0,11.0,99,0.00,,,0.17,,2013-08-14 07:11:00,
2013-08-14 03:21:00,64.0,64.0,29.76,NNE,17,0.0,11.0,99,0.00,,,0.17,,2013-08-14 07:21:00,
2013-08-14 03:52:00,64.0,64.0,29.76,NNE,17,0.0,11.0,99,0.00,,,0.17,,2013-08-14 07:52:00,
2013-08-14 04:01:00,64.0,64.0,29.76,NNE,17,0.0,11.0,99,0.00,,,0.17,,2013-08-14 08:01:00,
2013-08-14 04:52:00,62.0,62.0,29.76,WNW,303,1.0,11.0,99,0.00,,,0.17,,2013-08-14 08:52:00,
2013-08-14 05:11:00,61.0,61.0,29.78,NNW,337,1.0,17.0,99,0.00,,,0.17,,2013-08-14 09:11:00,
2013-08-14 05:21:00,61.0,61.0,29.78,NNW,337,1.0,17.0,99,0.00,,,0.17,,2013-08-14 09:21:00,
2013-08-14 05:53:00,61.0,61.0,29.78,NNW,330,6.0,17.0,99,0.00,,,0.17,,2013-08-14 09:53:00,
2013-08-14 06:12:00,60.0,60.0,29.79,NW,317,5.0,17.0,99,0.00,,,0.17,,2013-08-14 10:12:00,
2013-08-14 06:23:00,60.0,60.0,29.79,NW,317,5.0,17.0,99,0.00,,,0.17,,2013-08-14 10:23:00,
2013-08-14 06:53:00,60.0,59.0,29.80,NNW,331,5.0,17.0,98,0.00,,,0.17,,2013-08-14 10:53:00,
2013-08-14 07:11:00,60.0,59.0,29.82,NNW,327,0.0,17.0,97,0.00,,,0.17,,2013-08-14 11:11:00,
2013-08-14 07:21:00,60.0,59.0,29.82,NNW,327,0.0,17.0,97,0.00,,,0.17,,2013-08-14 11:21:00,
2013-08-14 07:52:00,59.0,58.0,29.83,NW,308,0.0,17.0,97,0.00,,,0.17,,2013-08-14 11:52:00,
2013-08-14 08:11:00,59.0,58.0,29.83,NW,314,2.0,17.0,97,0.00,,,0.17,,2013-08-14 12:11:00,
2013-08-14 08:21:00,59.0,58.0,29.83,NW,314,2.0,17.0,97,0.00,,,0.17,,2013-08-14 12:21:00,
2013-08-14 08:52:00,60.0,58.0,29.83,WNW,282,2.0,17.0,94,0.00,,,0.17,,2013-08-14 12:52:00,
2013-08-14 09:11:00,61.0,59.0,29.83,NW,322,4.0,17.0,92,0.00,,,0.17,,2013-08-14 13:11:00,
2013-08-14 09:22:00,61.0,59.0,29.83,NW,322,4.0,17.0,92,0.00,,,0.17,,2013-08-14 13:22:00,
2013-08-14 09:52:00,63.0,60.0,29.83,NW,325,3.0,17.0,89,0.00,,,0.17,,2013-08-14 13:52:00,
2013-08-14 10:11:00,65.0,60.0,29.83,NNW,342,5.0,17.0,83,0.00,,,0.17,,2013-08-14 14:11:00,
2013-08-14 10:22:00,65.0,60.0,29.83,NNW,342,5.0,17.0,83,0.00,,,0.17,,2013-08-14 14:22:00,
2013-08-14 13:20:00,70.0,59.0,29.84,NNW,337,6.0,17.0,67,0.00,,,0.11,,2013-08-14 17:20:00,
2013-08-14 13:29:00,70.0,59.0,29.84,NNW,337,6.0,17.0,67,0.00,,,0.11,,2013-08-14 17:29:00,
2013-08-14 13:55:00,70.0,59.0,29.84,NNW,348,7.0,19.0,67,0.00,,,0.07,,2013-08-14 17:55:00,
2013-08-14 14:33:00,-999.0,-99.9,29.85,North,357,2.0,19.0,71,0.00,,,0.01,,2013-08-14 18:33:00,
2013-08-14 15:03:00,71.0,59.0,29.85,NW,311,6.0,20.0,67,0.00,,,0.01,,2013-08-14 19:03:00,
2013-08-14 15:15:00,71.0,60.0,29.85,NW,305,3.0,20.0,68,0.00,,,0.01,,2013-08-14 19:15:00,
2013-08-14 15:35:00,71.0,60.0,29.85,NW,305,3.0,20.0,68,0.00,,,0.01,,2013-08-14 19:35:00,
2013-08-14 16:12:00,71.0,59.0,29.85,WNW,303,4.0,22.0,66,0.00,,,0.00,,2013-08-14 20:12:00,
2013-08-14 16:53:00,70.0,59.0,29.86,WNW,299,5.0,22.0,68,0.00,,,0.00,,2013-08-14 20:53:00,
2013-08-14 17:24:00,71.0,60.0,29.87,NNW,340,4.0,22.0,69,0.00,,,0.00,,2013-08-14 21:24:00,
2013-08-14 17:55:00,71.0,61.0,29.88,NNW,327,6.0,22.0,70,0.00,,,0.00,,2013-08-14 21:55:00,
2013-08-14 18:13:00,69.0,60.0,29.88,NW,314,2.0,22.0,72,0.00,,,0.00,,2013-08-14 22:13:00,
2013-08-14 18:23:00,69.0,60.0,29.88,NW,314,2.0,22.0,72,0.00,,,0.00,,2013-08-14 22:23:00,
2013-08-14 18:37:00,69.0,60.0,29.90,North,350,2.0,22.0,72,0.00,,,0.00,,2013-08-14 22:37:00,
2013-08-14 18:55:00,70.0,60.0,29.89,NNW,328,5.0,22.0,70,0.00,,,0.00,,2013-08-14 22:55:00,
2013-08-14 19:13:00,69.0,60.0,29.90,North,350,2.0,22.0,72,0.00,,,0.00,,2013-08-14 23:13:00,
2013-08-14 19:25:00,69.0,60.0,29.90,North,350,2.0,22.0,72,0.00,,,0.00,,2013-08-14 23:25:00,
2013-08-14 20:23:00,67.0,61.0,29.93,NW,314,2.0,22.0,81,0.00,,,0.00,,2013-08-15 00:23:00,
2013-08-14 20:52:00,65.0,60.0,29.95,West,267,0.0,22.0,83,0.00,,,0.00,,2013-08-15 00:52:00,
2013-08-14 21:16:00,63.0,60.0,29.97,WSW,258,0.0,22.0,89,0.00,,,0.00,,2013-08-15 01:16:00,
2013-08-14 21:22:00,63.0,60.0,29.97,WSW,258,0.0,22.0,89,0.00,,,0.00,,2013-08-15 01:22:00,
2013-08-14 21:52:00,62.0,60.0,29.99,WSW,258,0.0,22.0,92,0.00,,,0.00,,2013-08-15 01:52:00,
2013-08-14 22:11:00,61.0,59.0,30.01,West,270,2.0,22.0,93,0.00,,,0.00,,2013-08-15 02:11:00,
2013-08-14 22:21:00,61.0,59.0,30.01,West,270,2.0,22.0,93,0.00,,,0.00,,2013-08-15 02:21:00,
2013-08-14 23:11:00,60.0,59.0,30.03,WNW,286,0.0,22.0,95,0.00,,,0.00,,2013-08-15 03:11:00,
2013-08-14 23:22:00,60.0,59.0,30.03,WNW,286,0.0,22.0,95,0.00,,,0.00,,2013-08-15 03:22:00,
2013-08-14 23:53:00,60.0,59.0,30.03,West,261,0.0,22.0,96,0.00,,,0.00,,2013-08-15 03:53:00,